Kustanai, Kazakhstan
Current Conditions -  °F | °C
As of 1:00 AM on Thursday 27 Nov 2014 (Local Time) from UAUU Reporting Station
Clear Clear  
Wind Chill:   Ceiling: Unl
Heat Index: 18°   Visibility: 6mi
Dew Point:   Wind: 16mph
Humidity: 68%   Direction: 310°NW
Pressure: 30.03"   Gusts: NA
Location:  53.22°N, 63.62°E
Report Text: UAUU 261900Z 31007MPS CAVOK M08/M13 Q1017 R33/CLRD60 NOSIG RMKQFE747/0996
Loading
Personal Weather Stations






























Interactive Weather Map New forecast layout! Learn more

10-Day Weather Forecast

Advertisements
Track Severe Weather on mobile